Time;durP1;ratioP1;P1;durP2;ratioP2;P2;SDS_P1;SDS_P2;PMS_P1;PMS_P2;Temp;Humidity;BMP_temperature;BMP_pressure;BME280_temperature;BME280_humidity;BME280_pressure;Samples;Min_cycle;Max_cycle;Signal;HPM_P1;HPM_P2
2023/01/21 00:00:13;;;;;;;;;;;;;;;0.93;69.76;100344.53;1088124;54;19943;-83
2023/01/21 00:01:18;;;;;;;;;;;;;;;0.93;69.97;100348.00;1088333;54;19935;-83
2023/01/21 00:02:19;;;;;;;;;;;;;;;0.99;69.69;100343.38;1088262;54;19943;-84
2023/01/21 00:03:23;;;;;;;;;;;;;;;0.93;69.52;100345.34;1088272;54;19943;-84
2023/01/21 00:04:24;;;;;;;;;;;;;;;0.85;69.76;100341.41;1088308;54;19942;-82
2023/01/21 00:05:28;;;;;;;;;;;;;;;0.86;69.88;100349.22;1088243;54;19948;-83
2023/01/21 00:06:29;;;;;;;;;;;;;;;0.81;70.23;100351.22;1091044;46;19962;-84
2023/01/21 00:07:36;;;;;;;;;;;;;;;0.80;70.35;100346.91;1088453;46;19990;-84
2023/01/21 00:08:37;;;;;;;;;;;;;;;0.83;69.93;100352.00;1091381;46;19943;-82
2023/01/21 00:09:41;;;;;;;;;;;;;;;0.83;69.84;100351.16;1089024;46;19927;-84
2023/01/21 00:10:42;;;;;;;;;;;;;;;0.83;69.81;100349.38;1088204;54;19939;-83
2023/01/21 00:11:46;;;;;;;;;;;;;;;0.89;70.03;100356.13;1088353;54;19965;-83
2023/01/21 00:12:47;;;;;;;;;;;;;;;0.96;69.94;100346.97;1088189;54;19942;-82
2023/01/21 00:13:51;;;;;;;;;;;;;;;1.00;69.82;100356.44;1088273;54;19926;-84
2023/01/21 00:14:52;;;;;;;;;;;;;;;0.96;69.68;100352.25;1088356;54;19938;-83
2023/01/21 00:15:59;;;;;;;;;;;;;;;0.95;70.10;100355.81;1088794;39;20582;-83
2023/01/21 00:17:00;;;;;;;;;;;;;;;0.92;70.20;100354.19;1088414;54;19942;-83
2023/01/21 00:18:04;;;;;;;;;;;;;;;0.89;70.42;100362.25;1088281;54;20209;-83
2023/01/21 00:19:05;;;;;;;;;;;;;;;0.89;70.54;100366.66;1088261;54;19943;-83
2023/01/21 00:20:10;;;;;;;;;;;;;;;0.85;70.59;100357.22;1088205;54;19946;-84
2023/01/21 00:21:11;;;;;;;;;;;;;;;0.81;70.31;100353.84;1088320;54;19943;-85
2023/01/21 00:22:14;;;;;;;;;;;;;;;0.78;70.69;100359.28;1088278;54;19943;-82
2023/01/21 00:23:15;;;;;;;;;;;;;;;0.78;70.61;100361.91;1088172;54;20676;-83
2023/01/21 00:24:21;;;;;;;;;;;;;;;0.75;70.92;100359.41;1088248;54;19942;-85
2023/01/21 00:25:22;;;;;;;;;;;;;;;0.69;70.90;100363.19;1088305;54;19934;-82
2023/01/21 00:26:26;;;;;;;;;;;;;;;0.70;70.91;100364.91;1088391;54;19927;-83
2023/01/21 00:27:27;;;;;;;;;;;;;;;0.69;71.04;100365.84;1088643;46;20662;-84
2023/01/21 00:28:31;;;;;;;;;;;;;;;0.67;70.97;100361.56;1088336;54;19942;-84
2023/01/21 00:29:32;;;;;;;;;;;;;;;0.66;71.41;100371.25;1088311;54;19943;-84
2023/01/21 00:30:36;;;;;;;;;;;;;;;0.57;71.39;100363.78;1088262;54;19926;-81
2023/01/21 00:31:40;;;;;;;;;;;;;;;0.55;71.51;100363.03;1088295;54;19942;-84
2023/01/21 00:32:44;;;;;;;;;;;;;;;0.57;71.66;100363.78;1088181;54;19934;-83
2023/01/21 00:33:47;;;;;;;;;;;;;;;0.53;71.61;100370.13;1088386;54;19950;-83
2023/01/21 00:43:39;;;;;;;;;;;;;;;0.69;71.49;100372.88;1089077;54;19983;-85
2023/01/21 00:48:11;;;;;;;;;;;;;;;0.86;70.55;100374.69;1087865;54;19951;-84
2023/01/21 00:49:19;;;;;;;;;;;;;;;0.89;70.44;100375.41;1087606;54;19942;-84
2023/01/21 01:10:39;;;;;;;;;;;;;;;0.61;69.71;100383.75;1069007;54;19946;31
2023/01/21 01:11:42;;;;;;;;;;;;;;;0.51;70.03;100393.00;1069237;54;19946;31
2023/01/21 01:19:50;;;;;;;;;;;;;;;0.43;70.39;100396.00;1068807;54;19976;31
2023/01/21 01:20:55;;;;;;;;;;;;;;;0.42;70.04;100395.16;1074498;54;19955;-82
2023/01/21 01:26:17;;;;;;;;;;;;;;;0.33;70.65;100407.91;1087853;54;19931;-82
2023/01/21 01:39:52;;;;;;;;;;;;;;;-0.03;71.12;100414.72;1068824;54;19950;31
2023/01/21 01:43:17;;;;;;;;;;;;;;;0.03;71.30;100424.13;1068645;54;20070;31
2023/01/21 01:44:40;;;;;;;;;;;;;;;-0.08;71.32;100411.44;1087063;46;20854;31
2023/01/21 01:45:41;;;;;;;;;;;;;;;-0.16;71.85;100430.19;1088597;54;19927;-84
2023/01/21 01:46:44;;;;;;;;;;;;;;;-0.20;72.04;100428.59;1095330;39;20153;-85
2023/01/21 01:47:47;;;;;;;;;;;;;;;-0.19;72.08;100428.53;1088704;54;19982;-85
2023/01/21 01:48:53;;;;;;;;;;;;;;;-0.21;72.25;100434.78;1088516;54;19927;-84
2023/01/21 01:49:55;;;;;;;;;;;;;;;-0.20;72.33;100429.47;1088464;54;19942;-84
2023/01/21 01:51:01;;;;;;;;;;;;;;;-0.22;72.35;100426.06;1088282;54;19991;-83
2023/01/21 01:52:03;;;;;;;;;;;;;;;-0.23;72.55;100424.34;1088483;54;19946;-84
2023/01/21 01:53:07;;;;;;;;;;;;;;;-0.24;72.78;100433.13;1088486;54;19957;-85
2023/01/21 01:54:10;;;;;;;;;;;;;;;-0.23;72.73;100426.97;1088435;54;19978;-85
2023/01/21 01:55:18;;;;;;;;;;;;;;;-0.21;72.83;100426.88;1088397;54;19967;-84
2023/01/21 01:56:20;;;;;;;;;;;;;;;-0.21;72.54;100426.88;1088448;54;19943;-83
2023/01/21 01:57:25;;;;;;;;;;;;;;;-0.19;72.57;100427.69;1094037;39;20586;-83
2023/01/21 01:58:30;;;;;;;;;;;;;;;-0.19;72.40;100439.03;1088523;54;19983;-84
2023/01/21 01:59:32;;;;;;;;;;;;;;;-0.18;72.30;100424.13;1088600;54;19943;-85
2023/01/21 02:00:36;;;;;;;;;;;;;;;-0.13;72.42;100432.66;1088504;54;19982;-84
2023/01/21 02:01:37;;;;;;;;;;;;;;;-0.20;72.47;100434.72;1088525;54;19931;-84
2023/01/21 02:10:48;;;;;;;;;;;;;;;-0.30;73.12;100449.19;1068788;54;20025;31
2023/01/21 02:11:53;;;;;;;;;;;;;;;-0.27;73.05;100454.28;1101122;39;20113;-85
2023/01/21 02:12:57;;;;;;;;;;;;;;;-0.26;72.82;100456.00;1088190;54;20694;-84
2023/01/21 02:14:03;;;;;;;;;;;;;;;-0.22;72.97;100456.72;1088371;54;19926;-84
2023/01/21 02:16:53;;;;;;;;;;;;;;;-0.15;72.69;100458.19;1088267;54;20022;-84
2023/01/21 02:18:02;;;;;;;;;;;;;;;-0.19;72.17;100453.97;1088593;54;20591;-85
2023/01/21 02:19:16;;;;;;;;;;;;;;;-0.25;72.61;100457.72;1088474;54;19942;-85
2023/01/21 02:20:32;;;;;;;;;;;;;;;-0.27;72.69;100456.91;1088552;54;19946;-84
2023/01/21 02:21:48;;;;;;;;;;;;;;;-0.24;72.65;100455.94;1088504;54;19923;-83
2023/01/21 02:22:57;;;;;;;;;;;;;;;-0.17;72.36;100462.66;1088508;54;19949;-83
2023/01/21 02:27:26;;;;;;;;;;;;;;;-0.28;72.62;100467.50;1088102;54;19923;-84
2023/01/21 02:28:42;;;;;;;;;;;;;;;-0.32;72.88;100464.16;1092786;46;20712;-83
2023/01/21 02:33:18;;;;;;;;;;;;;;;-0.29;72.53;100469.28;1088234;54;19943;-84
2023/01/21 02:34:25;;;;;;;;;;;;;;;-0.40;72.85;100476.75;1088303;54;19927;-84
2023/01/21 02:35:32;;;;;;;;;;;;;;;-0.46;72.88;100469.97;1088378;54;19961;-85
2023/01/21 02:36:53;;;;;;;;;;;;;;;-0.47;73.09;100474.38;1088265;54;19983;-84
2023/01/21 02:40:55;;;;;;;;;;;;;;;-0.29;72.46;100476.28;1087890;54;19938;-83
2023/01/21 02:42:02;;;;;;;;;;;;;;;-0.25;72.44;100473.47;1087923;54;19950;-84
2023/01/21 02:47:49;;;;;;;;;;;;;;;-0.48;72.83;100484.94;1087472;54;19931;-80
2023/01/21 02:59:42;;;;;;;;;;;;;;;-0.81;72.95;100498.53;1087888;54;21084;-83
2023/01/21 03:00:51;;;;;;;;;;;;;;;-0.90;73.17;100499.75;1088820;54;19934;-84
2023/01/21 03:01:59;;;;;;;;;;;;;;;-0.92;73.61;100498.94;1096754;46;19943;-84
2023/01/21 03:03:18;;;;;;;;;;;;;;;-0.95;73.83;100507.81;1096418;46;20000;-84
2023/01/21 03:04:41;;;;;;;;;;;;;;;-0.96;73.88;100502.63;1088331;54;19955;-84
2023/01/21 03:05:59;;;;;;;;;;;;;;;-0.91;74.00;100503.28;1088336;54;19942;-82
2023/01/21 03:07:05;;;;;;;;;;;;;;;-0.84;73.50;100506.53;1088844;46;19946;-84
2023/01/21 03:08:10;;;;;;;;;;;;;;;-0.91;73.21;100511.16;1088408;54;19952;-82
2023/01/21 03:09:21;;;;;;;;;;;;;;;-0.84;73.20;100501.28;1088163;54;19942;-83
2023/01/21 03:10:27;;;;;;;;;;;;;;;-0.89;73.30;100508.47;1088266;54;19975;-83
2023/01/21 03:11:31;;;;;;;;;;;;;;;-0.85;73.28;100508.28;1088263;54;19934;-83
2023/01/21 03:12:38;;;;;;;;;;;;;;;-0.91;73.35;100505.91;1088352;54;19947;-84
2023/01/21 03:18:03;;;;;;;;;;;;;;;-1.24;74.64;100516.81;1088396;54;21263;-85
2023/01/21 03:19:25;;;;;;;;;;;;;;;-1.26;74.92;100516.00;1088381;54;19966;-84
2023/01/21 03:20:35;;;;;;;;;;;;;;;-1.29;74.94;100514.34;1088504;54;19970;-83
2023/01/21 03:22:15;;;;;;;;;;;;;;;-1.32;74.97;100513.63;1088356;54;19942;-83
2023/01/21 06:46:31;;;;;;;;;;;;;;;-1.84;76.85;100671.84;1088386;54;19926;-84
2023/01/21 06:47:38;;;;;;;;;;;;;;;-1.85;76.65;100670.16;1088160;54;19933;-83
2023/01/21 06:48:42;;;;;;;;;;;;;;;-1.84;76.72;100665.78;1088410;54;19972;-83
2023/01/21 06:49:43;;;;;;;;;;;;;;;-1.88;76.97;100676.34;1088365;54;19943;-84
2023/01/21 06:50:47;;;;;;;;;;;;;;;-1.91;76.97;100671.19;1088381;54;19939;-84
2023/01/21 06:51:50;;;;;;;;;;;;;;;-1.83;77.04;100683.19;1088651;54;19927;-84
2023/01/21 06:52:54;;;;;;;;;;;;;;;-1.85;76.87;100678.00;1091806;46;19961;-85
2023/01/21 07:52:23;;;;;;;;;;;;;;;-1.03;75.54;100721.59;1083121;54;19946;31
2023/01/21 08:01:30;;;;;;;;;;;;;;;-1.04;75.01;100719.91;1088452;54;19943;-85
2023/01/21 08:17:52;;;;;;;;;;;;;;;-0.57;73.32;100725.22;1088377;54;19938;-84
2023/01/21 08:19:14;;;;;;;;;;;;;;;-0.56;73.69;100720.81;1087998;54;19943;-83
2023/01/21 08:20:29;;;;;;;;;;;;;;;-0.56;72.88;100726.91;1088182;39;20689;-85
2023/01/21 08:21:37;;;;;;;;;;;;;;;-0.56;73.28;100719.03;1088177;54;19973;-83
2023/01/21 08:24:36;;;;;;;;;;;;;;;-0.71;72.88;100716.97;1087836;54;20008;-83
2023/01/21 08:28:42;;;;;;;;;;;;;;;-0.65;73.00;100717.63;1087541;54;19946;-83
2023/01/21 08:29:59;;;;;;;;;;;;;;;-0.72;72.77;100725.75;1087680;54;20002;-84
2023/01/21 08:31:07;;;;;;;;;;;;;;;-0.65;73.32;100716.75;1087944;54;19946;-84
2023/01/21 08:33:45;;;;;;;;;;;;;;;-0.58;72.46;100717.38;1087738;54;19941;-84
2023/01/21 08:35:12;;;;;;;;;;;;;;;-0.62;72.43;100727.13;1091964;47;19951;-84
2023/01/21 08:36:16;;;;;;;;;;;;;;;-0.72;72.28;100723.13;1088268;54;19946;-83
2023/01/21 08:37:20;;;;;;;;;;;;;;;-0.68;72.73;100722.13;1088213;54;19943;-84
2023/01/21 08:38:21;;;;;;;;;;;;;;;-0.67;72.31;100719.44;1088079;54;19942;-84
2023/01/21 08:39:25;;;;;;;;;;;;;;;-0.71;72.56;100724.84;1088839;46;19938;-85
2023/01/21 08:40:26;;;;;;;;;;;;;;;-0.69;72.75;100726.50;1088431;54;19943;-84
2023/01/21 08:41:30;;;;;;;;;;;;;;;-0.63;72.66;100722.78;1088344;54;19943;-82
2023/01/21 08:42:31;;;;;;;;;;;;;;;-0.57;72.76;100726.97;1088522;54;19949;-83
2023/01/21 08:43:35;;;;;;;;;;;;;;;-0.53;72.55;100726.81;1088444;54;19934;-82
2023/01/21 08:44:39;;;;;;;;;;;;;;;-0.48;72.54;100724.88;1088417;54;19949;-84
2023/01/21 08:45:43;;;;;;;;;;;;;;;-0.44;72.50;100730.88;1090893;46;19943;-83
2023/01/21 08:46:44;;;;;;;;;;;;;;;-0.42;72.11;100728.16;1088525;54;19927;-83
2023/01/21 08:47:48;;;;;;;;;;;;;;;-0.41;72.00;100729.88;1088554;54;19935;-85
2023/01/21 08:48:54;;;;;;;;;;;;;;;-0.40;72.14;100732.44;1090767;46;19949;-85
2023/01/21 08:49:56;;;;;;;;;;;;;;;-0.36;72.10;100730.56;1088759;46;19935;-84
2023/01/21 08:51:00;;;;;;;;;;;;;;;-0.34;71.86;100729.59;1089367;46;19942;-84
2023/01/21 08:52:02;;;;;;;;;;;;;;;-0.29;71.93;100729.44;1089470;46;19926;-84
2023/01/21 08:53:06;;;;;;;;;;;;;;;-0.35;71.14;100734.91;1089240;46;19949;-83
2023/01/21 08:54:10;;;;;;;;;;;;;;;-0.38;71.33;100735.88;1088316;54;19943;-84
2023/01/21 08:55:11;;;;;;;;;;;;;;;-0.34;71.72;100742.75;1088467;54;19942;-83
2023/01/21 08:56:15;;;;;;;;;;;;;;;-0.28;71.60;100746.03;1091780;46;19942;-84
2023/01/21 08:57:19;;;;;;;;;;;;;;;-0.28;71.54;100740.78;1088430;54;19942;-84
2023/01/21 08:58:20;;;;;;;;;;;;;;;-0.40;71.09;100739.50;1090459;46;19970;-84
2023/01/21 08:59:27;;;;;;;;;;;;;;;-0.47;71.16;100742.31;1088385;54;19949;-84
2023/01/21 09:00:28;;;;;;;;;;;;;;;-0.45;71.44;100738.78;1090005;46;19998;-83
2023/01/21 09:01:34;;;;;;;;;;;;;;;-0.40;71.77;100740.34;1088340;54;19942;-84
2023/01/21 09:02:36;;;;;;;;;;;;;;;-0.40;71.59;100740.34;1088302;54;20014;-84
2023/01/21 09:03:40;;;;;;;;;;;;;;;-0.38;71.41;100737.66;1088415;54;19931;-83
2023/01/21 09:04:45;;;;;;;;;;;;;;;-0.33;71.26;100738.34;1088405;54;19946;-85
2023/01/21 09:05:50;;;;;;;;;;;;;;;-0.29;71.10;100739.94;1088426;54;19966;-83
2023/01/21 09:06:51;;;;;;;;;;;;;;;-0.24;70.93;100732.72;1091712;46;19943;-84
2023/01/21 09:07:55;;;;;;;;;;;;;;;-0.18;71.26;100737.75;1088139;54;19990;-84
2023/01/21 09:09:00;;;;;;;;;;;;;;;-0.19;70.70;100735.19;1088100;54;19927;-82
2023/01/21 09:10:04;;;;;;;;;;;;;;;-0.13;70.79;100739.34;1094422;39;20613;-83
2023/01/21 09:11:05;;;;;;;;;;;;;;;-0.11;70.66;100727.00;1088278;54;19950;-83
2023/01/21 09:12:09;;;;;;;;;;;;;;;-0.13;70.00;100742.81;1091106;46;19950;-86
2023/01/21 09:13:10;;;;;;;;;;;;;;;-0.28;69.84;100739.00;1088378;54;19973;-82
2023/01/21 09:14:14;;;;;;;;;;;;;;;-0.28;70.32;100746.03;1088153;54;19942;-84
2023/01/21 09:15:15;;;;;;;;;;;;;;;-0.23;70.60;100739.69;1091013;46;19943;-86
2023/01/21 09:16:20;;;;;;;;;;;;;;;-0.19;70.24;100743.91;1088370;54;19938;-84
2023/01/21 09:17:21;;;;;;;;;;;;;;;-0.34;70.27;100741.88;1088356;54;19939;-85
2023/01/21 09:18:25;;;;;;;;;;;;;;;-0.45;70.53;100749.28;1088773;46;19990;-84
2023/01/21 09:19:29;;;;;;;;;;;;;;;-0.47;71.04;100742.31;1090767;46;19942;-84
2023/01/21 09:20:33;;;;;;;;;;;;;;;-0.47;70.95;100752.84;1089673;46;19942;-83
2023/01/21 09:21:37;;;;;;;;;;;;;;;-0.50;70.85;100749.47;1089072;46;19994;-83
2023/01/21 09:22:41;;;;;;;;;;;;;;;-0.44;71.33;100751.88;1089109;46;19942;-82
2023/01/21 09:23:43;;;;;;;;;;;;;;;-0.35;71.50;100753.28;1088080;54;19943;-83
2023/01/21 09:24:46;;;;;;;;;;;;;;;-0.23;71.05;100752.84;1089894;46;19943;-82
2023/01/21 09:25:48;;;;;;;;;;;;;;;-0.28;70.53;100757.41;1088390;46;19966;-83
2023/01/21 09:26:52;;;;;;;;;;;;;;;-0.29;70.55;100750.47;1088127;54;19966;-83
2023/01/21 09:27:53;;;;;;;;;;;;;;;-0.28;70.07;100757.41;1088494;46;19927;-84
2023/01/21 09:28:58;;;;;;;;;;;;;;;-0.26;70.36;100760.00;1088257;54;19942;-84
2023/01/21 09:29:59;;;;;;;;;;;;;;;-0.19;70.60;100758.84;1088129;54;19938;-82
2023/01/21 09:31:04;;;;;;;;;;;;;;;-0.23;69.92;100755.47;1089782;46;19994;-84
2023/01/21 09:32:25;;;;;;;;;;;;;;;-0.13;70.31;100763.00;1088333;54;19942;-83
2023/01/21 09:33:27;;;;;;;;;;;;;;;-0.21;69.97;100755.41;1096041;46;19974;-85
2023/01/21 09:34:32;;;;;;;;;;;;;;;-0.12;70.43;100762.09;1088511;54;20043;-85
2023/01/21 09:35:37;;;;;;;;;;;;;;;-0.10;69.89;100760.25;1088460;54;19927;-85
2023/01/21 09:36:45;;;;;;;;;;;;;;;-0.05;70.06;100760.94;1088542;54;19926;-83
2023/01/21 09:37:47;;;;;;;;;;;;;;;0.05;70.06;100757.03;1088160;54;19977;-82
2023/01/21 09:38:51;;;;;;;;;;;;;;;0.09;69.71;100758.66;1088126;54;19954;-82
2023/01/21 09:39:55;;;;;;;;;;;;;;;0.13;69.39;100764.63;1088174;54;19923;-83
2023/01/21 09:40:59;;;;;;;;;;;;;;;0.12;68.90;100758.50;1088115;54;19943;-82
2023/01/21 09:42:03;;;;;;;;;;;;;;;0.08;68.94;100763.94;1089951;39;20106;-82
2023/01/21 09:43:10;;;;;;;;;;;;;;;0.07;69.00;100767.47;1088180;54;19943;-83
2023/01/21 09:44:16;;;;;;;;;;;;;;;0.04;68.62;100760.56;1090541;46;19951;-82
2023/01/21 09:45:18;;;;;;;;;;;;;;;0.00;68.86;100766.88;1091442;46;19946;-82
2023/01/21 09:46:26;;;;;;;;;;;;;;;-0.11;68.88;100763.81;1088905;46;19938;-82
2023/01/21 09:47:33;;;;;;;;;;;;;;;-0.16;69.69;100771.88;1089970;46;19943;-82
2023/01/21 09:48:35;;;;;;;;;;;;;;;-0.21;69.59;100769.41;1088064;54;19954;-82
2023/01/21 09:49:41;;;;;;;;;;;;;;;-0.16;69.86;100771.88;1088204;54;19938;-82
2023/01/21 09:50:47;;;;;;;;;;;;;;;-0.21;69.42;100782.56;1090152;46;19930;-83
2023/01/21 09:51:54;;;;;;;;;;;;;;;-0.20;69.38;100776.38;1089556;39;20278;-83
2023/01/21 09:53:03;;;;;;;;;;;;;;;-0.13;70.01;100777.00;1088531;46;19942;-83
2023/01/21 09:54:11;;;;;;;;;;;;;;;-0.07;69.79;100782.03;1088165;54;19942;-82
2023/01/21 09:55:16;;;;;;;;;;;;;;;-0.01;69.55;100775.69;1088147;54;19978;-83
2023/01/21 09:56:21;;;;;;;;;;;;;;;-0.01;69.12;100773.91;1088653;46;19961;-83
2023/01/21 09:57:52;;;;;;;;;;;;;;;-0.02;69.30;100779.22;1088242;54;19970;-83
2023/01/21 09:59:00;;;;;;;;;;;;;;;0.04;69.16;100776.34;1088025;54;19946;-83
2023/01/21 10:00:16;;;;;;;;;;;;;;;0.04;69.05;100781.59;1088131;54;19950;-83
2023/01/21 10:01:23;;;;;;;;;;;;;;;0.06;69.27;100777.16;1089872;46;19958;-84
2023/01/21 10:02:27;;;;;;;;;;;;;;;0.12;69.15;100782.16;1088391;54;19943;-83
2023/01/21 10:03:34;;;;;;;;;;;;;;;0.09;68.91;100781.44;1089197;46;19939;-84
2023/01/21 10:04:47;;;;;;;;;;;;;;;-0.02;68.87;100781.84;1091786;46;19942;-84
2023/01/21 10:06:11;;;;;;;;;;;;;;;0.00;69.38;100777.41;1090250;46;19945;-82
2023/01/21 10:07:20;;;;;;;;;;;;;;;0.07;69.38;100786.75;1088376;54;19930;-83
2023/01/21 10:08:27;;;;;;;;;;;;;;;0.18;69.13;100780.22;1088308;54;19966;-83
2023/01/21 10:09:41;;;;;;;;;;;;;;;0.21;68.69;100780.09;1088926;46;19927;-82
2023/01/21 10:10:46;;;;;;;;;;;;;;;0.24;68.20;100786.09;1089618;46;19950;-82
2023/01/21 10:11:57;;;;;;;;;;;;;;;0.30;68.21;100777.09;1089387;46;19927;-84
2023/01/21 10:13:04;;;;;;;;;;;;;;;0.38;68.46;100775.00;1088527;46;19943;-83
2023/01/21 10:14:15;;;;;;;;;;;;;;;0.44;68.16;100777.41;1088932;46;19942;-82
2023/01/21 10:15:33;;;;;;;;;;;;;;;0.36;67.27;100783.88;1088188;54;19965;-83
2023/01/21 10:16:38;;;;;;;;;;;;;;;0.44;67.88;100780.03;1088168;46;19934;-83
2023/01/21 10:17:50;;;;;;;;;;;;;;;0.44;67.47;100784.44;1088086;54;19953;-82
2023/01/21 10:18:52;;;;;;;;;;;;;;;0.49;67.41;100781.63;1088516;46;19957;-83
2023/01/21 10:19:58;;;;;;;;;;;;;;;0.50;67.42;100778.06;1088109;54;19941;-82
2023/01/21 10:21:05;;;;;;;;;;;;;;;0.50;67.40;100767.53;1088080;54;19942;-83
2023/01/21 10:22:13;;;;;;;;;;;;;;;0.44;67.18;100774.78;1088143;54;19962;-83
2023/01/21 10:23:19;;;;;;;;;;;;;;;0.32;67.14;100774.41;1089098;46;19956;-82
2023/01/21 10:24:26;;;;;;;;;;;;;;;0.36;67.60;100774.25;1088955;46;19950;-82
2023/01/21 10:25:29;;;;;;;;;;;;;;;0.38;67.64;100782.91;1088964;46;19949;-85
2023/01/21 10:26:36;;;;;;;;;;;;;;;0.40;67.43;100774.97;1088148;54;19942;-84
2023/01/21 10:27:37;;;;;;;;;;;;;;;0.47;67.41;100768.53;1090807;46;19927;-84
2023/01/21 10:28:43;;;;;;;;;;;;;;;0.53;67.50;100775.31;1087959;54;20484;-84
2023/01/21 10:29:45;;;;;;;;;;;;;;;0.53;67.51;100780.59;1088165;54;19954;-83
2023/01/21 10:30:51;;;;;;;;;;;;;;;0.54;67.33;100772.63;1088149;54;19951;-83
2023/01/21 10:31:53;;;;;;;;;;;;;;;0.56;66.94;100773.41;1089109;46;19949;-83
2023/01/21 10:32:58;;;;;;;;;;;;;;;0.58;67.15;100783.88;1088464;54;19965;-84
2023/01/21 11:03:51;;;;;;;;;;;;;;;0.41;66.74;100772.25;1074451;54;19968;31
2023/01/21 11:06:12;;;;;;;;;;;;;;;0.54;65.86;100772.63;1087390;54;19951;-82
2023/01/21 11:08:20;;;;;;;;;;;;;;;0.41;66.16;100769.63;1088035;54;19946;-81
2023/01/21 11:09:27;;;;;;;;;;;;;;;0.32;66.37;100766.53;1087865;54;19974;-82
2023/01/21 11:10:29;;;;;;;;;;;;;;;0.32;66.13;100777.91;1088157;39;20592;-82
2023/01/21 11:11:36;;;;;;;;;;;;;;;0.35;66.54;100772.53;1088592;31;20656;-81
2023/01/21 11:12:37;;;;;;;;;;;;;;;0.34;66.79;100775.19;1088238;54;19926;-83
2023/01/21 11:13:41;;;;;;;;;;;;;;;0.35;66.37;100769.88;1088005;54;19942;-80
2023/01/21 11:14:45;;;;;;;;;;;;;;;0.35;66.18;100774.28;1087918;54;19927;-82
2023/01/21 11:15:51;;;;;;;;;;;;;;;0.33;66.61;100781.41;1087899;54;19949;-82
2023/01/21 11:16:53;;;;;;;;;;;;;;;0.32;66.28;100772.63;1087874;54;19950;-81
2023/01/21 11:17:57;;;;;;;;;;;;;;;0.28;66.61;100765.81;1087784;54;20512;-82
2023/01/21 11:18:58;;;;;;;;;;;;;;;0.25;66.08;100779.06;1087819;54;20185;-80
2023/01/21 11:20:04;;;;;;;;;;;;;;;0.15;66.57;100768.03;1087910;54;19942;-81
2023/01/21 11:21:13;;;;;;;;;;;;;;;0.26;66.62;100772.88;1088836;39;20577;-82
2023/01/21 11:22:24;;;;;;;;;;;;;;;0.28;66.56;100766.66;1087748;54;19949;-82
2023/01/21 11:23:26;;;;;;;;;;;;;;;0.31;66.75;100765.66;1087857;54;20240;-84
2023/01/21 11:24:31;;;;;;;;;;;;;;;0.24;66.47;100769.47;1092051;39;20557;-81
2023/01/21 11:25:36;;;;;;;;;;;;;;;0.20;66.26;100767.84;1087823;54;19952;-82
2023/01/21 11:26:50;;;;;;;;;;;;;;;0.19;66.61;100767.00;1087889;54;19946;-83
2023/01/21 11:27:54;;;;;;;;;;;;;;;0.08;66.71;100761.31;1087939;54;19949;-82
2023/01/21 11:29:08;;;;;;;;;;;;;;;0.04;67.19;100759.72;1087829;54;19947;-83
2023/01/21 11:30:29;;;;;;;;;;;;;;;0.01;67.18;100763.31;1087843;54;19942;-81
2023/01/21 11:31:30;;;;;;;;;;;;;;;0.12;67.24;100760.28;1087853;54;19970;-83
2023/01/21 11:32:36;;;;;;;;;;;;;;;0.10;67.12;100762.97;1087982;54;19942;-83
2023/01/21 11:33:38;;;;;;;;;;;;;;;0.04;67.31;100757.94;1087889;54;19927;-83
2023/01/21 11:34:46;;;;;;;;;;;;;;;0.09;67.67;100763.03;1087918;54;19946;-83
2023/01/21 11:35:47;;;;;;;;;;;;;;;0.08;67.62;100759.56;1088010;54;19949;-83
2023/01/21 11:37:01;;;;;;;;;;;;;;;0.03;67.20;100748.34;1088687;46;20665;-83
2023/01/21 11:38:03;;;;;;;;;;;;;;;0.01;67.35;100765.94;1088970;39;20563;-84
2023/01/21 11:39:08;;;;;;;;;;;;;;;-0.04;67.55;100758.22;1088107;54;19989;-83
2023/01/21 11:40:14;;;;;;;;;;;;;;;-0.09;67.82;100761.94;1095203;39;20407;-82
2023/01/21 11:41:18;;;;;;;;;;;;;;;0.01;67.87;100763.31;1087966;54;19949;-83
2023/01/21 11:42:23;;;;;;;;;;;;;;;0.02;67.59;100746.63;1088045;54;19945;-83
2023/01/21 11:43:32;;;;;;;;;;;;;;;0.01;67.57;100747.53;1089790;39;20238;-84
2023/01/21 11:44:37;;;;;;;;;;;;;;;-0.05;67.69;100758.31;1088125;54;19927;-83
2023/01/21 11:45:38;;;;;;;;;;;;;;;-0.06;68.04;100760.09;1088147;54;19949;-84
2023/01/21 11:46:49;;;;;;;;;;;;;;;-0.08;68.16;100758.41;1088111;54;19965;-84
2023/01/21 11:47:51;;;;;;;;;;;;;;;-0.05;68.20;100759.16;1091710;39;20581;-83
2023/01/21 11:50:15;;;;;;;;;;;;;;;0.21;67.92;100745.91;1087596;54;19946;-83
2023/01/21 11:51:16;;;;;;;;;;;;;;;0.25;67.44;100742.25;1087751;54;19943;-84
2023/01/21 11:58:30;;;;;;;;;;;;;;;0.30;67.48;100742.91;1088090;39;20708;-84
2023/01/21 11:59:32;;;;;;;;;;;;;;;0.35;67.56;100740.97;1088186;54;19927;-82
2023/01/21 12:01:57;;;;;;;;;;;;;;;0.55;66.74;100734.03;1087952;54;19942;-83
2023/01/21 12:03:02;;;;;;;;;;;;;;;0.61;66.75;100731.13;1088227;54;19926;-81
2023/01/21 12:04:04;;;;;;;;;;;;;;;0.58;66.68;100726.84;1088024;54;19943;-84
2023/01/21 12:05:13;;;;;;;;;;;;;;;0.52;66.81;100723.63;1088274;54;19969;-83
2023/01/21 12:18:39;;;;;;;;;;;;;;;0.64;66.27;100715.22;1085066;54;19934;-85
2023/01/21 12:19:49;;;;;;;;;;;;;;;0.62;66.86;100717.06;1083824;54;19938;31
2023/01/21 12:21:01;;;;;;;;;;;;;;;0.67;66.80;100717.69;1075662;54;19957;31
2023/01/21 12:26:39;;;;;;;;;;;;;;;0.67;66.27;100722.97;1088466;54;19949;-84
2023/01/21 12:31:24;;;;;;;;;;;;;;;0.59;66.71;100717.16;1073063;54;21157;31
2023/01/21 12:47:42;;;;;;;;;;;;;;;0.29;69.82;100730.66;1088289;54;19946;-84
2023/01/21 12:48:45;;;;;;;;;;;;;;;0.39;69.67;100721.47;1087715;54;19949;-81
2023/01/21 12:54:43;;;;;;;;;;;;;;;0.32;70.79;100729.72;1085040;54;19934;31
2023/01/21 12:55:50;;;;;;;;;;;;;;;0.21;71.17;100732.75;1077978;54;20312;31
2023/01/21 12:58:10;;;;;;;;;;;;;;;0.20;71.48;100741.56;1086761;54;19961;31
2023/01/21 12:59:18;;;;;;;;;;;;;;;0.13;71.74;100733.91;1076881;39;21345;31
2023/01/21 13:03:39;;;;;;;;;;;;;;;-0.04;73.13;100734.56;1088640;54;19934;-81
2023/01/21 13:04:43;;;;;;;;;;;;;;;0.01;73.28;100739.66;1088738;54;19966;-83
2023/01/21 13:05:57;;;;;;;;;;;;;;;0.04;73.34;100731.66;1122547;39;20407;-85
2023/01/21 13:09:25;;;;;;;;;;;;;;;0.09;73.81;100732.34;1080368;54;19949;-82
2023/01/21 13:10:34;;;;;;;;;;;;;;;0.11;73.73;100727.00;1075250;54;19942;31
2023/01/21 13:11:42;;;;;;;;;;;;;;;0.03;73.98;100732.56;1075322;54;20023;31
2023/01/21 13:15:23;;;;;;;;;;;;;;;0.12;73.98;100726.94;1083219;54;19939;31
2023/01/21 13:18:47;;;;;;;;;;;;;;;0.08;74.22;100728.00;1087763;54;19946;-84
2023/01/21 13:20:41;;;;;;;;;;;;;;;0.13;74.44;100726.03;1088337;54;19947;-83
2023/01/21 13:21:45;;;;;;;;;;;;;;;0.13;74.57;100730.44;1095420;39;20593;-83
2023/01/21 13:22:56;;;;;;;;;;;;;;;0.15;74.08;100729.47;1087830;54;19947;-81
2023/01/21 13:24:01;;;;;;;;;;;;;;;0.04;74.61;100731.66;1089873;39;20547;-83
2023/01/21 13:25:23;;;;;;;;;;;;;;;0.07;74.57;100731.53;1088176;54;19946;-81
2023/01/21 14:31:16;;;;;;;;;;;;;;;0.33;69.05;100768.25;1084009;54;19927;31
2023/01/21 14:37:56;;;;;;;;;;;;;;;0.32;68.90;100771.78;1076566;54;19942;31
2023/01/21 15:10:03;;;;;;;;;;;;;;;0.29;67.84;100783.25;1088200;54;19955;-84
2023/01/21 15:13:50;;;;;;;;;;;;;;;0.33;68.42;100790.13;1086696;54;19966;-85
2023/01/21 15:23:51;;;;;;;;;;;;;;;0.23;67.95;100778.25;1087936;54;19934;-84
2023/01/21 15:48:02;;;;;;;;;;;;;;;0.05;69.12;100798.25;1078583;46;20001;31
